LSZL

Details ICAO LSZL (ZJI)
Name Locarno
Region Switzerland
Timezone Europe/Zurich (UTC+1.0)
Plans Departing 21
Arriving 29
Stats Elevation 650 ft / 198 m (AMSL)
Location 46.162618° 8.879874°
Runways 3
Magnetic Variation 2.418° E
Sunrise 2017-12-15 07:01:39 UTC / 2017-12-15 08:01:39 Local
Sunset 2017-12-15 15:40:23 UTC / 2017-12-15 16:40:23 Local
Advertisement - Login to hide

Runways

ID Width Length Bearing (true) Bearing (mag) Surface Threshold Offset Overrun Length
08C 98 ft / 30 m 2,298 ft / 700 m 80.00° 77.58° Grass 0 ft / 0 m 0 ft / 0 m
08L 75 ft / 23 m 2,626 ft / 801 m 80.00° 77.58° Asphalt 0 ft / 0 m 0 ft / 0 m
08R 98 ft / 30 m 2,298 ft / 700 m 80.00° 77.58° Grass 0 ft / 0 m 0 ft / 0 m
26C 98 ft / 30 m 2,298 ft / 700 m 260.00° 257.58° Grass 0 ft / 0 m 0 ft / 0 m
26L 98 ft / 30 m 2,298 ft / 700 m 260.00° 257.58° Grass 0 ft / 0 m 0 ft / 0 m
26R 75 ft / 23 m 2,626 ft / 801 m 260.00° 257.58° Asphalt 0 ft / 0 m 0 ft / 0 m

Map

Weather


0- 5 10 15 20 25 30 35+ Temperature / ° C

Clouds and Precipitation
Forecast for 2017-12-15 00:00 UTC. Updated 2 hours ago

Ground ~20,000 ft ~40,000 ft Winds

METAR

LSZL 142350Z AUTO VRB02KT 9999NDV FEW046 01/M01 Q1001 RMK

TAF

Not found

Frequencies

Recorded 133.45 MHz ATIS
Tower 134.82 MHz TWR
Ground 121.70 MHz GND
Warning: Do not use this data for real-world aviation or navigation. No guarantee of current accuracy is given.